Time;durP1;ratioP1;P1;durP2;ratioP2;P2;SDS_P1;SDS_P2;PMS_P1;PMS_P2;Temp;Humidity;BMP_temperature;BMP_pressure;BME280_temperature;BME280_humidity;BME280_pressure;Samples;Min_cycle;Max_cycle;Signal;HPM_P1;HPM_P2
2021/12/30 00:01:07;;;;;;;22.90;9.97;;;;;;;2.15;100.00;99847.03;5051629;28;20195;-77
2021/12/30 00:03:33;;;;;;;18.07;10.00;;;;;;;2.04;100.00;99832.88;5068258;28;20202;-77
2021/12/30 00:06:00;;;;;;;19.43;9.93;;;;;;;2.02;100.00;99852.41;5065438;28;20199;-77
2021/12/30 00:08:28;;;;;;;25.03;10.97;;;;;;;1.91;100.00;99817.81;5055526;28;20215;-78
2021/12/30 00:10:54;;;;;;;18.70;10.47;;;;;;;2.20;100.00;99860.03;5035605;28;20197;-77
2021/12/30 00:13:23;;;;;;;34.40;15.90;;;;;;;2.23;100.00;99857.59;5063913;28;20277;-77
2021/12/30 00:15:50;;;;;;;26.07;14.00;;;;;;;2.26;100.00;99862.84;5069400;28;20195;-77
2021/12/30 00:18:17;;;;;;;18.50;11.10;;;;;;;2.27;100.00;99868.03;5054956;28;20214;-76
2021/12/30 00:20:44;;;;;;;15.70;10.20;;;;;;;2.02;100.00;99826.84;5056383;28;20234;-77
2021/12/30 00:23:11;;;;;;;18.30;10.17;;;;;;;2.35;100.00;99869.25;5056622;28;20207;-76
2021/12/30 00:25:41;;;;;;;24.80;11.37;;;;;;;2.41;100.00;99874.63;5063477;28;20196;-77
2021/12/30 00:28:10;;;;;;;27.00;11.90;;;;;;;2.37;100.00;99871.88;5066334;28;20781;-77
2021/12/30 00:30:38;;;;;;;21.20;10.30;;;;;;;1.96;100.00;99801.88;5061078;28;20199;-77
2021/12/30 00:33:05;;;;;;;22.23;10.20;;;;;;;2.41;100.00;99876.31;5064236;28;20197;-78
2021/12/30 00:35:33;;;;;;;24.03;10.93;;;;;;;1.95;100.00;99814.59;5058942;28;20191;-78
2021/12/30 00:38:00;;;;;;;16.73;9.73;;;;;;;2.33;100.00;99869.97;5058898;28;20675;-77
2021/12/30 00:40:27;;;;;;;18.37;9.67;;;;;;;2.47;100.00;99887.69;5074798;28;20195;-76
2021/12/30 00:42:54;;;;;;;17.50;8.77;;;;;;;2.26;100.00;99857.72;5066078;28;20210;-76
2021/12/30 00:45:21;;;;;;;15.23;9.13;;;;;;;2.35;100.00;99896.53;5055271;28;20211;-77
2021/12/30 00:47:49;;;;;;;30.23;11.53;;;;;;;2.31;100.00;99875.03;5054049;28;20220;-76
2021/12/30 00:50:16;;;;;;;21.13;9.93;;;;;;;2.38;100.00;99874.50;5056244;28;20207;-76
2021/12/30 00:52:43;;;;;;;20.97;11.40;;;;;;;2.55;100.00;99893.13;5062377;28;20198;-76
2021/12/30 00:55:11;;;;;;;21.60;12.00;;;;;;;2.43;100.00;99887.47;5063217;28;20207;-77
2021/12/30 00:57:37;;;;;;;17.00;10.43;;;;;;;2.49;100.00;99896.31;5055450;28;20196;-77
2021/12/30 01:00:07;;;;;;;15.63;10.07;;;;;;;2.58;100.00;99902.63;5062434;28;20206;-76
2021/12/30 01:02:33;;;;;;;22.83;9.83;;;;;;;2.58;100.00;99902.63;5068943;28;20689;-77
2021/12/30 01:05:02;;;;;;;26.97;10.60;;;;;;;2.27;100.00;99844.13;5074600;28;20206;-77
2021/12/30 01:07:28;;;;;;;25.17;10.13;;;;;;;2.60;100.00;99911.25;5074668;28;20230;-76
2021/12/30 01:09:55;;;;;;;21.87;9.83;;;;;;;2.45;100.00;99896.09;5074352;28;20678;-77
2021/12/30 01:12:23;;;;;;;23.40;10.33;;;;;;;2.50;100.00;99908.28;5069082;28;20206;-77
2021/12/30 01:14:50;;;;;;;19.80;9.43;;;;;;;2.56;100.00;99919.59;5054692;28;20642;-77
2021/12/30 01:17:22;;;;;;;23.80;10.10;;;;;;;2.46;100.00;99919.19;5053929;28;20199;-76
2021/12/30 01:19:51;;;;;;;16.20;9.73;;;;;;;2.15;100.00;99852.13;5063986;28;20264;-76
2021/12/30 01:22:21;;;;;;;21.57;10.33;;;;;;;2.58;100.00;99907.75;5060175;28;20237;-76
2021/12/30 01:24:49;;;;;;;21.90;10.83;;;;;;;2.08;100.00;99811.75;5072516;28;20195;-76
2021/12/30 01:27:17;;;;;;;29.80;15.90;;;;;;;2.21;100.00;99834.50;5060819;28;20611;-76
2021/12/30 01:29:43;;;;;;;16.13;11.33;;;;;;;2.25;100.00;99867.06;5057166;28;20199;-77
2021/12/30 01:32:10;;;;;;;19.13;10.57;;;;;;;2.62;100.00;99917.31;5071468;28;20211;-77
2021/12/30 01:34:38;;;;;;;15.70;9.13;;;;;;;2.58;100.00;99917.97;5054424;28;20202;-77
2021/12/30 01:37:05;;;;;;;18.83;9.30;;;;;;;2.49;100.00;99924.47;5054521;28;20301;-78
2021/12/30 01:39:36;;;;;;;17.07;8.20;;;;;;;2.53;100.00;99924.59;5057886;28;20256;-77
2021/12/30 01:42:05;;;;;;;15.53;8.87;;;;;;;2.40;100.00;99912.94;5072744;28;20274;-76
2021/12/30 01:44:32;;;;;;;12.10;7.83;;;;;;;2.40;100.00;99924.03;5073719;28;20209;-77
2021/12/30 01:47:00;;;;;;;13.17;8.37;;;;;;;2.07;100.00;99891.81;5071676;28;20203;-77
2021/12/30 01:49:27;;;;;;;14.33;8.17;;;;;;;2.39;100.00;99927.41;5057143;28;20207;-76
2021/12/30 01:51:55;;;;;;;14.80;8.80;;;;;;;2.43;100.00;99936.97;5053679;28;20196;-77
2021/12/30 01:54:23;;;;;;;15.93;8.67;;;;;;;2.52;100.00;99930.50;5073202;28;20206;-76
2021/12/30 01:56:52;;;;;;;14.50;9.13;;;;;;;2.46;100.00;99919.19;5073313;28;20199;-77
2021/12/30 01:59:19;;;;;;;18.47;8.80;;;;;;;2.54;100.00;99936.56;5068160;28;20202;-77
2021/12/30 02:01:46;;;;;;;15.40;9.47;;;;;;;2.41;100.00;99936.03;5071948;28;20673;-76
2021/12/30 02:04:13;;;;;;;19.53;10.50;;;;;;;2.31;100.00;99917.66;5054946;28;20195;-75
2021/12/30 02:06:40;;;;;;;22.77;11.40;;;;;;;2.49;100.00;99942.38;5054201;28;20210;-77
2021/12/30 02:09:07;;;;;;;21.83;12.57;;;;;;;2.50;100.00;99945.78;5053851;28;20226;-76
2021/12/30 02:11:35;;;;;;;19.93;10.40;;;;;;;2.44;100.00;99945.50;5054075;28;20203;-76
2021/12/30 02:14:03;;;;;;;17.27;9.93;;;;;;;2.28;100.00;99902.16;5055258;28;20290;-76
2021/12/30 02:16:30;;;;;;;15.63;9.80;;;;;;;2.39;100.00;99942.75;5052903;28;20207;-76
2021/12/30 02:18:56;;;;;;;20.40;11.30;;;;;;;2.42;100.00;99942.03;5071163;28;20202;-77
2021/12/30 02:21:25;;;;;;;22.00;11.03;;;;;;;2.50;100.00;99935.53;5071266;28;20713;-76
2021/12/30 02:23:52;;;;;;;22.37;11.47;;;;;;;2.49;100.00;99939.81;5072957;28;20640;-77
2021/12/30 02:26:20;;;;;;;26.43;13.47;;;;;;;2.33;100.00;99942.47;5072812;28;20203;-76
2021/12/30 02:28:47;;;;;;;24.03;12.90;;;;;;;2.30;100.00;99941.47;5056109;28;20231;-76
2021/12/30 02:31:18;;;;;;;16.83;10.20;;;;;;;2.26;100.00;99950.69;5060003;28;20256;-76
2021/12/30 02:33:46;;;;;;;18.80;9.80;;;;;;;1.72;100.00;99891.88;5054470;28;20195;-76
2021/12/30 02:36:18;;;;;;;19.20;10.57;;;;;;;2.13;100.00;99957.72;5057636;28;20199;-77
2021/12/30 02:38:46;;;;;;;18.13;10.30;;;;;;;2.20;100.00;99954.66;5056722;28;20629;-76
2021/12/30 02:41:17;;;;;;;16.27;9.87;;;;;;;2.31;100.00;99949.22;5052702;28;20682;-76
2021/12/30 02:43:47;;;;;;;19.30;10.90;;;;;;;2.39;100.00;99940.19;5069229;28;20637;-78
2021/12/30 02:46:15;;;;;;;17.70;10.53;;;;;;;2.46;100.00;99955.00;5058970;28;20286;-77
2021/12/30 02:48:42;;;;;;;20.53;10.03;;;;;;;2.45;100.00;99957.50;5066516;28;20222;-76
2021/12/30 02:51:11;;;;;;;16.80;10.10;;;;;;;2.34;100.00;99957.03;5072249;28;20367;-78
2021/12/30 02:53:39;;;;;;;26.57;9.90;;;;;;;2.48;100.00;99966.19;5072588;28;20669;-76
2021/12/30 02:56:08;;;;;;;15.10;9.30;;;;;;;2.50;100.00;99969.69;5062637;28;20204;-77
2021/12/30 02:58:35;;;;;;;17.80;9.90;;;;;;;2.47;100.00;99977.22;5062341;28;20235;-76
2021/12/30 03:01:06;;;;;;;16.97;8.87;;;;;;;2.36;100.00;99983.53;5072575;28;20225;-77
2021/12/30 03:03:33;;;;;;;15.67;9.27;;;;;;;2.27;100.00;99979.69;5072114;28;20195;-78
2021/12/30 03:06:05;;;;;;;19.37;9.30;;;;;;;2.35;100.00;99984.38;5072195;28;20206;-77
2021/12/30 03:08:32;;;;;;;23.87;13.27;;;;;;;2.25;100.00;99989.84;5058781;28;20227;-78
2021/12/30 03:10:59;;;;;;;263.60;58.20;;;;;;;2.20;100.00;99986.22;5052188;28;20594;-77
2021/12/30 03:13:31;;;;;;;37.10;16.03;;;;;;;2.10;100.00;99978.94;5069465;28;20822;-77
2021/12/30 03:15:59;;;;;;;34.10;13.37;;;;;;;2.15;100.00;99992.78;5052530;28;20195;-77
2021/12/30 03:18:26;;;;;;;35.93;15.83;;;;;;;1.85;100.00;99988.81;5064652;28;20195;-77
2021/12/30 03:20:53;;;;;;;30.53;14.93;;;;;;;1.95;100.00;99985.88;5071490;28;20722;-78
2021/12/30 03:23:20;;;;;;;33.83;14.13;;;;;;;1.75;100.00;99945.72;5071993;28;20198;-77
2021/12/30 03:25:47;;;;;;;18.63;10.73;;;;;;;2.06;100.00;99988.94;5072202;28;20210;-77
2021/12/30 03:28:14;;;;;;;16.43;10.17;;;;;;;2.07;100.00;99983.88;5061439;28;20223;-76
2021/12/30 03:30:42;;;;;;;14.80;9.20;;;;;;;2.14;100.00;99991.03;5051888;28;20200;-77
2021/12/30 03:33:09;;;;;;;15.07;8.87;;;;;;;2.09;100.00;99987.41;5059891;28;20203;-77
2021/12/30 03:35:36;;;;;;;12.80;8.60;;;;;;;2.11;100.00;99990.88;5071833;28;20199;-77
2021/12/30 03:38:04;;;;;;;14.80;8.30;;;;;;;2.14;100.00;99991.03;5062193;28;20207;-76
2021/12/30 03:40:30;;;;;;;11.50;7.87;;;;;;;2.04;100.00;99999.06;5051848;28;20207;-76
2021/12/30 03:42:57;;;;;;;10.63;7.70;;;;;;;2.06;100.00;100001.72;5060289;28;20195;-76
2021/12/30 03:45:26;;;;;;;13.67;9.63;;;;;;;2.05;100.00;100005.06;5051781;28;20218;-77
2021/12/30 03:47:54;;;;;;;11.90;8.80;;;;;;;1.96;100.00;100008.09;5057576;28;20203;-76
2021/12/30 03:50:24;;;;;;;13.40;9.70;;;;;;;1.87;100.00;100000.84;5071362;28;20195;-78
2021/12/30 03:52:53;;;;;;;14.20;11.00;;;;;;;1.95;100.00;100008.88;5057970;28;20200;-78
2021/12/30 03:55:21;;;;;;;10.17;7.73;;;;;;;2.05;100.00;100011.06;5051839;28;20689;-76
2021/12/30 03:57:50;;;;;;;8.30;6.87;;;;;;;1.09;100.00;99875.25;5054555;28;20207;-76
2021/12/30 04:00:18;;;;;;;12.53;8.70;;;;;;;1.82;100.00;100001.44;5071194;28;20947;-76
2021/12/30 04:02:45;;;;;;;18.80;12.17;;;;;;;1.80;100.00;100023.47;5071465;28;20199;-76
2021/12/30 04:05:13;;;;;;;17.10;11.40;;;;;;;1.85;100.00;100022.91;5069609;28;20198;-77
2021/12/30 04:07:40;;;;;;;19.33;12.00;;;;;;;1.89;100.00;100023.94;5069491;28;20621;-77
2021/12/30 04:10:10;;;;;;;17.40;11.60;;;;;;;1.83;100.00;100033.84;5069004;28;20219;-76
2021/12/30 04:12:36;;;;;;;17.33;12.10;;;;;;;1.85;100.00;100022.03;5054230;28;20203;-75
2021/12/30 04:15:04;;;;;;;17.33;11.80;;;;;;;1.83;100.00;100039.84;5068726;28;20211;-76
2021/12/30 04:17:31;;;;;;;16.23;12.07;;;;;;;1.92;100.00;100034.31;5054962;28;20190;-76
2021/12/30 04:19:58;;;;;;;19.93;12.17;;;;;;;2.05;100.00;100046.84;5070908;28;20211;-76
2021/12/30 04:22:26;;;;;;;21.83;13.00;;;;;;;2.13;100.00;100050.66;5058586;28;20234;-76
2021/12/30 04:24:53;;;;;;;22.67;14.23;;;;;;;2.14;100.00;100060.06;5051554;28;20210;-77
2021/12/30 04:27:20;;;;;;;30.77;17.13;;;;;;;2.02;100.00;100069.72;5052594;28;20187;-78
2021/12/30 04:29:47;;;;;;;26.77;15.20;;;;;;;2.08;100.00;100069.13;5062512;28;20697;-76
2021/12/30 04:32:14;;;;;;;30.93;16.23;;;;;;;2.16;100.00;100073.81;5056562;28;20613;-76
2021/12/30 04:34:40;;;;;;;24.13;13.37;;;;;;;1.80;100.00;100072.91;5071184;28;20220;-75
2021/12/30 04:37:07;;;;;;;24.23;13.53;;;;;;;1.73;100.00;100082.75;5069222;28;20202;-77
2021/12/30 04:39:35;;;;;;;21.13;12.70;;;;;;;1.97;100.00;100082.28;5051276;28;20214;-78
2021/12/30 04:42:02;;;;;;;23.97;13.23;;;;;;;1.89;100.00;100081.03;5052263;28;20199;-76
2021/12/30 04:44:30;;;;;;;24.53;13.27;;;;;;;1.98;100.00;100090.84;5070971;28;20199;-77
2021/12/30 04:46:57;;;;;;;25.93;13.73;;;;;;;1.98;100.00;100095.94;5070646;28;20202;-76
2021/12/30 04:49:25;;;;;;;21.67;13.53;;;;;;;2.12;100.00;100100.03;5068802;28;20222;-76
2021/12/30 04:51:53;;;;;;;28.40;14.27;;;;;;;1.93;100.00;100107.59;5074649;28;20202;-76
2021/12/30 04:54:20;;;;;;;24.53;13.20;;;;;;;2.00;100.00;100100.31;5073088;28;20191;-76
2021/12/30 04:56:48;;;;;;;26.17;14.20;;;;;;;2.05;100.00;100108.22;5074808;28;20195;-77
2021/12/30 04:59:15;;;;;;;21.23;12.70;;;;;;;1.91;100.00;100109.22;5060460;28;20203;-75
2021/12/30 05:01:41;;;;;;;25.63;14.33;;;;;;;1.84;100.00;100112.28;5054834;28;20226;-76
2021/12/30 05:04:08;;;;;;;35.70;19.47;;;;;;;1.88;100.00;100109.09;5054573;28;20211;-79
2021/12/30 05:06:36;;;;;;;28.27;14.27;;;;;;;1.61;100.00;100084.69;5070848;28;20214;-76
2021/12/30 05:09:03;;;;;;;24.97;14.97;;;;;;;1.97;100.00;100119.75;5056578;28;20223;-76
2021/12/30 05:11:30;;;;;;;21.40;12.90;;;;;;;1.94;100.00;100134.94;5054579;28;20207;-77
2021/12/30 05:13:59;;;;;;;20.70;13.23;;;;;;;2.03;100.00;100131.97;5054294;28;20204;-76
2021/12/30 05:16:26;;;;;;;23.30;13.67;;;;;;;1.54;100.00;100080.06;5054342;28;20207;-76
2021/12/30 05:18:56;;;;;;;20.23;11.87;;;;;;;1.89;100.00;100131.28;5059052;28;20769;-76
2021/12/30 05:21:23;;;;;;;27.40;14.73;;;;;;;1.67;100.00;100133.56;5055171;28;20717;-75
2021/12/30 05:23:49;;;;;;;17.73;12.30;;;;;;;1.70;100.00;100133.72;5056946;28;20204;-77
2021/12/30 05:26:17;;;;;;;16.80;10.50;;;;;;;1.44;100.00;100120.50;5074549;28;20202;-76
2021/12/30 05:28:43;;;;;;;15.60;9.20;;;;;;;1.60;100.00;100136.59;5070595;28;20257;-75
2021/12/30 05:31:12;;;;;;;17.97;10.47;;;;;;;1.52;100.00;100143.88;5057364;28;20200;-75
2021/12/30 05:33:39;;;;;;;18.30;10.93;;;;;;;1.66;100.00;100135.25;5054280;28;20204;-77
2021/12/30 05:36:06;;;;;;;25.07;14.30;;;;;;;1.57;100.00;100147.53;5053890;28;20701;-75
2021/12/30 05:38:33;;;;;;;20.43;12.77;;;;;;;1.47;100.00;100125.75;5055338;28;20203;-76
2021/12/30 05:41:00;;;;;;;16.20;10.67;;;;;;;1.55;100.00;100141.47;5068903;28;20234;-77
2021/12/30 05:43:27;;;;;;;35.73;17.33;;;;;;;1.44;100.00;100150.25;5062874;28;20202;-74
2021/12/30 05:45:53;;;;;;;28.17;14.30;;;;;;;1.44;100.00;100156.25;5062104;28;20678;-77
2021/12/30 05:48:22;;;;;;;47.23;25.50;;;;;;;2.11;100.00;100151.97;5057175;28;20571;-76
2021/12/30 05:50:49;;;;;;;22.57;13.67;;;;;;;1.66;100.00;100086.69;5037099;28;20195;-79
2021/12/30 05:53:16;;;;;;;22.47;13.57;;;;;;;1.56;100.00;100068.25;5050695;28;20207;-77
2021/12/30 05:55:42;;;;;;;19.50;11.63;;;;;;;0.41;100.00;99930.47;5059893;28;20195;-79
2021/12/30 05:58:09;;;;;;;27.00;14.07;;;;;;;1.84;100.00;100168.50;5068793;28;20195;-77
2021/12/30 06:00:36;;;;;;;18.53;11.53;;;;;;;1.72;100.00;100167.88;5052965;28;20261;-77
2021/12/30 06:03:03;;;;;;;36.37;18.77;;;;;;;1.64;100.00;100182.81;5053805;28;20203;-77
2021/12/30 06:05:32;;;;;;;53.30;22.20;;;;;;;1.70;100.00;100179.72;5055628;28;20199;-77
2021/12/30 06:07:59;;;;;;;40.57;18.33;;;;;;;1.86;100.00;100205.25;5065748;28;20580;-76
2021/12/30 06:10:25;;;;;;;35.63;17.63;;;;;;;1.82;100.00;100211.03;5060596;28;20603;-77
2021/12/30 06:12:52;;;;;;;57.30;28.00;;;;;;;1.83;100.00;100216.19;5073602;28;20256;-77
2021/12/30 06:15:19;;;;;;;27.77;12.47;;;;;;;2.37;100.00;100219.78;5071215;28;20209;-80
2021/12/30 06:17:46;;;;;;;30.47;15.87;;;;;;;2.27;100.00;100221.00;5053023;28;20199;-77
2021/12/30 06:20:15;;;;;;;32.07;18.30;;;;;;;1.89;100.00;100170.50;5052983;28;20212;-76
2021/12/30 06:22:44;;;;;;;38.37;22.00;;;;;;;2.36;100.00;100230.81;5053119;28;20199;-75
2021/12/30 06:25:11;;;;;;;40.37;20.70;;;;;;;2.23;100.00;100241.22;5040517;28;20219;-77
2021/12/30 06:27:39;;;;;;;33.10;17.60;;;;;;;1.05;100.00;100026.50;5034332;28;20204;-77
2021/12/30 06:30:08;;;;;;;31.47;18.03;;;;;;;2.62;100.00;100262.81;5033405;28;20228;-79
2021/12/30 06:32:35;;;;;;;34.33;19.17;;;;;;;2.62;100.00;100268.78;5042805;28;20196;-76
2021/12/30 06:35:02;;;;;;;31.63;19.07;;;;;;;2.39;100.00;100239.50;5035239;28;20203;-81
2021/12/30 06:37:30;;;;;;;29.47;15.70;;;;;;;2.42;100.00;100272.94;5065311;28;20195;-76
2021/12/30 06:39:59;;;;;;;35.30;18.73;;;;;;;2.50;100.00;100284.41;5054034;28;20223;-84
2021/12/30 06:42:25;;;;;;;46.43;21.33;;;;;;;2.59;100.00;100289.13;5053452;28;20211;-81
2021/12/30 06:44:52;;;;;;;67.37;27.97;;;;;;;2.31;100.00;100276.66;5050680;28;20199;-76
2021/12/30 06:47:19;;;;;;;64.17;27.43;;;;;;;2.55;100.00;100306.81;5033322;28;20196;-78
2021/12/30 06:49:46;;;;;;;40.70;20.23;;;;;;;2.63;100.00;100315.75;5036958;28;20227;-77
2021/12/30 06:52:14;;;;;;;128.40;51.53;;;;;;;2.61;100.00;100319.91;5047433;28;20706;-77
2021/12/30 06:54:41;;;;;;;63.50;31.63;;;;;;;2.67;100.00;100328.78;5053533;28;20264;-77
2021/12/30 06:57:12;;;;;;;36.30;20.10;;;;;;;2.67;100.00;100327.91;5052910;28;20199;-79
2021/12/30 06:59:39;;;;;;;42.37;23.93;;;;;;;2.78;100.00;100337.84;5052720;28;20203;-77
2021/12/30 07:02:07;;;;;;;31.70;18.20;;;;;;;2.76;100.00;100344.59;5053267;28;20196;-76
2021/12/30 07:04:34;;;;;;;39.47;20.83;;;;;;;2.82;100.00;100360.25;5051997;28;20253;-80
2021/12/30 07:07:01;;;;;;;48.17;24.30;;;;;;;2.44;100.00;100296.91;5033817;28;20201;-85
2021/12/30 07:09:28;;;;;;;41.87;19.40;;;;;;;2.81;100.00;100367.88;5033895;28;20219;-77
2021/12/30 07:11:55;;;;;;;41.90;20.47;;;;;;;2.85;100.00;100374.91;5035420;28;20203;-77
2021/12/30 07:14:25;;;;;;;50.50;26.33;;;;;;;3.05;100.00;100379.31;5034565;28;20200;-77
2021/12/30 07:16:52;;;;;;;36.13;19.70;;;;;;;3.11;100.00;100383.84;5035551;28;20200;-77
2021/12/30 07:19:19;;;;;;;36.43;19.13;;;;;;;2.59;100.00;100312.16;5036028;28;20223;-78
2021/12/30 07:21:46;;;;;;;37.87;18.90;;;;;;;2.86;100.00;100397.13;5033563;28;20239;-76
2021/12/30 07:24:13;;;;;;;29.07;16.00;;;;;;;3.17;100.00;100392.75;5035951;28;20200;-80
2021/12/30 07:26:40;;;;;;;44.67;22.87;;;;;;;2.88;100.00;100400.66;5034234;28;20242;-76
2021/12/30 07:29:07;;;;;;;47.33;24.23;;;;;;;2.66;100.00;100392.69;5034473;28;20224;-76
2021/12/30 07:31:35;;;;;;;47.90;26.33;;;;;;;2.70;100.00;100395.50;5035171;28;20200;-82
2021/12/30 07:34:02;;;;;;;51.00;27.07;;;;;;;2.70;100.00;100372.44;5033597;28;20204;-77
2021/12/30 07:36:29;;;;;;;53.97;28.90;;;;;;;2.85;100.00;100395.38;5032988;28;20242;-76
2021/12/30 07:38:56;;;;;;;38.83;21.07;;;;;;;2.97;100.00;100408.78;5032607;28;20241;-75
2021/12/30 07:41:23;;;;;;;42.10;22.60;;;;;;;2.92;100.00;100407.69;5033770;28;20203;-80
2021/12/30 07:43:49;;;;;;;41.33;19.53;;;;;;;2.90;100.00;100409.28;5032552;28;20195;-77
2021/12/30 07:46:16;;;;;;;41.60;22.43;;;;;;;2.95;100.00;100413.84;5032132;28;20207;-78
2021/12/30 07:48:45;;;;;;;65.93;35.87;;;;;;;3.19;100.00;100410.75;5031325;28;20200;-77
2021/12/30 07:51:12;;;;;;;51.03;27.77;;;;;;;3.49;100.00;100423.38;5032362;28;20224;-83
2021/12/30 07:53:39;;;;;;;47.90;23.97;;;;;;;3.51;100.00;100426.00;5033907;28;20207;-80
2021/12/30 07:56:07;;;;;;;42.13;20.60;;;;;;;2.79;100.00;100338.72;5045879;28;20203;-79
2021/12/30 07:58:34;;;;;;;45.73;21.30;;;;;;;3.23;100.00;100428.91;5035432;28;20203;-78
2021/12/30 08:01:01;;;;;;;53.53;27.67;;;;;;;3.45;100.00;100434.28;5032438;28;20200;-76
2021/12/30 08:03:28;;;;;;;75.47;35.50;;;;;;;3.28;100.00;100430.00;5031994;28;20204;-76
2021/12/30 08:05:56;;;;;;;50.10;25.60;;;;;;;3.42;100.00;100444.34;5032253;28;20208;-82
2021/12/30 08:08:23;;;;;;;58.47;29.17;;;;;;;3.21;100.00;100452.69;5032507;28;20204;-76
2021/12/30 08:10:50;;;;;;;51.73;26.97;;;;;;;3.13;100.00;100454.88;5031507;28;20230;-78
2021/12/30 08:13:17;;;;;;;55.93;28.63;;;;;;;3.02;100.00;100379.19;5031894;28;20204;-79
2021/12/30 08:15:46;;;;;;;68.07;32.10;;;;;;;3.20;100.00;100462.06;5045627;28;20211;-77
2021/12/30 08:18:13;;;;;;;57.70;30.47;;;;;;;2.66;100.00;100395.25;5049240;28;20282;-78
2021/12/30 08:20:40;;;;;;;56.03;30.07;;;;;;;2.86;100.00;100415.03;5051056;28;20245;-79
2021/12/30 08:23:09;;;;;;;50.97;26.43;;;;;;;2.81;100.00;100403.72;5051799;28;20198;-80
2021/12/30 08:25:36;;;;;;;47.70;24.93;;;;;;;3.33;100.00;100484.94;5054542;28;20207;-79
2021/12/30 08:28:03;;;;;;;58.43;27.53;;;;;;;3.33;100.00;100484.94;5044602;28;20204;-77
2021/12/30 08:30:29;;;;;;;47.83;23.63;;;;;;;2.91;100.00;100488.75;5035105;28;20228;-77
2021/12/30 08:32:57;;;;;;;47.20;22.50;;;;;;;2.96;100.00;100489.84;5035356;28;20207;-79
2021/12/30 08:35:24;;;;;;;38.40;21.77;;;;;;;2.88;100.00;100503.09;5035748;28;20200;-78
2021/12/30 08:37:54;;;;;;;55.90;29.07;;;;;;;3.06;100.00;100500.59;5035961;28;20196;-82
2021/12/30 08:40:23;;;;;;;58.80;29.50;;;;;;;3.29;100.00;100500.94;5048225;28;20206;-81
2021/12/30 08:42:50;;;;;;;59.60;29.33;;;;;;;3.24;100.00;100504.97;5055525;28;20210;-82
2021/12/30 08:45:17;;;;;;;51.07;23.53;;;;;;;3.06;100.00;100504.03;5055062;28;20678;-77
2021/12/30 08:47:45;;;;;;;51.90;21.40;;;;;;;2.86;100.00;100504.66;5054539;28;20199;-81
2021/12/30 08:50:14;;;;;;;45.93;22.37;;;;;;;2.86;100.00;100495.31;5055263;28;20246;-77
2021/12/30 08:52:41;;;;;;;54.17;25.20;;;;;;;3.01;100.00;100505.47;5055353;28;20222;-82
2021/12/30 08:55:09;;;;;;;66.30;32.90;;;;;;;2.95;100.00;100505.16;5055505;28;20196;-85
2021/12/30 08:57:40;;;;;;;50.23;24.83;;;;;;;2.93;100.00;100506.75;5054679;28;20625;-87
2021/12/30 09:00:10;;;;;;;74.53;28.27;;;;;;;3.01;100.00;100500.34;5054758;28;20674;-86
2021/12/30 09:02:36;;;;;;;63.70;28.63;;;;;;;3.11;100.00;100502.56;5054655;28;20195;-86
2021/12/30 09:05:03;;;;;;;74.00;31.43;;;;;;;2.99;100.00;100473.78;5055305;28;20207;-85
2021/12/30 09:07:30;;;;;;;73.30;34.60;;;;;;;2.89;100.00;100517.66;5054551;28;20577;-85
2021/12/30 09:09:57;;;;;;;84.27;40.07;;;;;;;3.09;100.00;100519.56;5054994;28;20613;-85
2021/12/30 09:12:24;;;;;;;71.87;34.43;;;;;;;3.02;100.00;100480.75;5056906;28;20204;-85
2021/12/30 09:14:52;;;;;;;76.73;35.27;;;;;;;3.39;100.00;100521.09;5055855;28;20253;-84
2021/12/30 09:17:19;;;;;;;90.93;43.13;;;;;;;3.49;100.00;100532.72;5055745;28;20693;-79
2021/12/30 09:19:46;;;;;;;86.67;38.07;;;;;;;3.36;100.00;100485.06;5054184;28;20783;-81
2021/12/30 09:22:13;;;;;;;85.77;37.60;;;;;;;3.71;100.00;100534.66;5055182;28;20239;-78
2021/12/30 09:24:39;;;;;;;85.77;36.10;;;;;;;3.72;100.00;100551.78;5058866;28;20596;-83
2021/12/30 09:27:06;;;;;;;80.73;35.77;;;;;;;3.81;100.00;100536.88;5055954;28;20207;-82
2021/12/30 09:29:33;;;;;;;71.80;32.23;;;;;;;3.85;100.00;100505.44;5054366;28;20269;-84
2021/12/30 09:32:01;;;;;;;69.23;32.63;;;;;;;3.72;100.00;100546.66;5055601;28;20191;-83
2021/12/30 09:34:28;;;;;;;59.60;27.17;;;;;;;3.48;100.00;100547.22;5037166;28;20204;-80
2021/12/30 09:36:55;;;;;;;67.83;31.40;;;;;;;3.17;100.00;100554.16;5033014;28;20227;-82
2021/12/30 09:39:22;;;;;;;69.37;32.60;;;;;;;2.67;100.00;100486.59;5034171;28;20204;-80
2021/12/30 09:41:49;;;;;;;77.03;34.67;;;;;;;3.42;100.00;100554.56;5033709;28;20192;-80
2021/12/30 09:44:17;;;;;;;260.50;83.53;;;;;;;2.88;100.00;100509.09;5034143;28;20707;-78
2021/12/30 09:46:45;;;;;;;71.90;33.40;;;;;;;3.02;100.00;100562.69;5034113;28;20200;-81
2021/12/30 09:49:17;;;;;;;77.37;34.43;;;;;;;3.09;100.00;100563.09;5033347;28;20249;-81
2021/12/30 09:51:44;;;;;;;96.07;44.23;;;;;;;3.09;100.00;100559.66;5033715;28;20224;-79
2021/12/30 09:54:12;;;;;;;85.07;36.17;;;;;;;3.06;100.00;100559.50;5034038;28;20204;-79
2021/12/30 09:56:39;;;;;;;105.53;48.00;;;;;;;3.79;100.00;100517.94;5033443;28;20208;-78
2021/12/30 09:59:07;;;;;;;95.23;43.40;;;;;;;3.59;100.00;100539.16;5034637;28;20207;-78
2021/12/30 10:01:35;;;;;;;77.37;35.67;;;;;;;3.33;100.00;100525.91;5033727;28;20192;-78
2021/12/30 10:04:04;;;;;;;88.00;41.60;;;;;;;3.20;100.00;100550.84;5038588;28;20203;-77
2021/12/30 10:06:35;;;;;;;47.10;20.60;;;;;;;3.04;100.00;100546.59;5052837;28;20618;-80
2021/12/30 10:09:10;;;;;;;68.53;33.53;;;;;;;3.37;100.00;100548.34;5052985;28;20299;-79
2021/12/30 10:11:44;;;;;;;52.43;25.93;;;;;;;3.33;100.00;100558.34;5052029;28;20237;-78
2021/12/30 10:14:11;;;;;;;94.50;40.63;;;;;;;3.36;100.00;100553.38;5053605;28;20277;-78
2021/12/30 10:16:38;;;;;;;50.40;26.17;;;;;;;3.45;100.00;100554.75;5053211;28;20682;-78
2021/12/30 10:19:06;;;;;;;58.17;28.83;;;;;;;3.57;100.00;100562.16;5052508;28;20188;-78
2021/12/30 10:21:36;;;;;;;62.17;30.17;;;;;;;3.45;100.00;100557.31;5053378;28;20721;-82
2021/12/30 10:24:06;;;;;;;50.83;24.17;;;;;;;3.59;100.00;100564.81;5053376;28;20199;-81
2021/12/30 10:26:48;;;;;;;53.83;24.60;;;;;;;3.44;100.00;100565.78;5053774;28;20701;-78
2021/12/30 10:29:15;;;;;;;52.77;24.80;;;;;;;3.58;100.00;100579.31;5053481;28;20204;-80
2021/12/30 10:31:43;;;;;;;55.47;28.17;;;;;;;2.80;100.00;100413.06;5052741;28;20740;-78
2021/12/30 10:34:12;;;;;;;61.50;27.60;;;;;;;3.87;100.00;100578.19;5052863;28;20563;-78
2021/12/30 10:36:43;;;;;;;60.03;28.00;;;;;;;3.93;100.00;100583.63;5053105;28;20257;-76
2021/12/30 10:39:20;;;;;;;52.20;26.87;;;;;;;4.28;100.00;100572.50;5053129;28;20215;-79
2021/12/30 10:41:49;;;;;;;59.17;26.20;;;;;;;4.20;100.00;100574.72;5053260;28;20198;-75
2021/12/30 10:44:16;;;;;;;54.57;24.23;;;;;;;3.77;100.00;100581.09;5053093;28;20210;-78
2021/12/30 10:46:43;;;;;;;66.73;27.53;;;;;;;4.02;100.00;100591.78;5052281;28;20200;-78
2021/12/30 10:49:11;;;;;;;57.57;25.87;;;;;;;3.68;100.00;100580.63;5052344;28;20208;-77
2021/12/30 10:51:43;;;;;;;75.17;28.20;;;;;;;3.40;100.00;100584.38;5052438;28;20226;-78
2021/12/30 10:54:19;;;;;;;55.07;25.37;;;;;;;3.47;100.00;100581.31;5050259;28;20199;-80
2021/12/30 10:56:48;;;;;;;60.63;26.40;;;;;;;3.64;100.00;100591.56;5048359;28;20730;-76
2021/12/30 10:59:22;;;;;;;49.63;22.93;;;;;;;3.25;100.00;100588.69;5052163;28;20284;-76
2021/12/30 11:01:53;;;;;;;57.50;23.50;;;;;;;2.30;100.00;100428.38;5052804;28;20202;-78
2021/12/30 11:04:21;;;;;;;57.63;27.17;;;;;;;2.96;100.00;100568.41;5052635;28;20203;-77
2021/12/30 11:06:49;;;;;;;57.60;25.30;;;;;;;2.71;100.00;100527.78;5052982;28;20269;-74
2021/12/30 11:09:20;;;;;;;72.37;29.40;;;;;;;3.31;100.00;100590.72;5052012;28;20210;-78
2021/12/30 11:11:53;;;;;;;78.27;31.17;;;;;;;3.42;100.00;100587.88;5052076;28;20211;-79
2021/12/30 11:14:23;;;;;;;69.40;30.87;;;;;;;3.37;100.00;100591.91;5049481;28;20198;-78
2021/12/30 11:17:09;;;;;;;63.90;28.90;;;;;;;3.15;100.00;100544.59;5052154;28;20601;-80